Time;durP1;ratioP1;P1;durP2;ratioP2;P2;SDS_P1;SDS_P2;PMS_P1;PMS_P2;Temp;Humidity;BMP_temperature;BMP_pressure;BME280_temperature;BME280_humidity;BME280_pressure;Samples;Min_cycle;Max_cycle;Signal;HPM_P1;HPM_P2
2022/06/29 00:00:28;;;;;;;5.38;0.95;;;14.50;99.90;;;;;;5087431;28;20405;-58
2022/06/29 00:02:56;;;;;;;5.18;1.10;;;14.60;99.90;;;;;;5086580;28;20059;-57
2022/06/29 00:05:26;;;;;;;1.73;0.68;;;14.50;99.90;;;;;;5090548;28;20051;-55
2022/06/29 00:07:54;;;;;;;9.52;1.23;;;14.50;99.90;;;;;;5087679;28;20047;-57
2022/06/29 00:10:22;;;;;;;6.53;1.48;;;14.50;99.90;;;;;;5086125;28;20114;-57
2022/06/29 00:12:51;;;;;;;6.00;1.92;;;14.50;99.90;;;;;;5087616;28;20051;-57
2022/06/29 00:15:20;;;;;;;6.50;1.13;;;14.50;99.90;;;;;;5087791;28;20055;-57
2022/06/29 00:17:48;;;;;;;4.38;0.95;;;14.50;99.90;;;;;;5107557;28;20483;-56
2022/06/29 00:20:16;;;;;;;8.82;0.73;;;14.50;99.90;;;;;;5090887;28;20048;-56
2022/06/29 00:22:45;;;;;;;3.10;1.02;;;14.50;99.90;;;;;;5090639;28;20044;-58
2022/06/29 00:25:13;;;;;;;6.00;1.58;;;14.40;99.90;;;;;;5090612;28;20395;-58
2022/06/29 00:27:42;;;;;;;4.70;1.10;;;14.40;99.90;;;;;;5104452;28;20044;-57
2022/06/29 00:30:10;;;;;;;5.35;1.20;;;14.40;99.90;;;;;;5108666;28;20486;-57
2022/06/29 00:32:38;;;;;;;2.47;0.90;;;14.30;99.90;;;;;;5108715;28;20047;-57
2022/06/29 00:35:06;;;;;;;6.18;1.38;;;14.30;99.90;;;;;;5109790;28;20054;-57
2022/06/29 00:37:34;;;;;;;2.95;1.27;;;14.30;99.90;;;;;;5109727;28;20507;-56
2022/06/29 00:40:03;;;;;;;6.25;1.20;;;14.30;99.90;;;;;;5110739;28;20058;-58
2022/06/29 00:42:31;;;;;;;9.77;1.80;;;14.20;99.90;;;;;;5093132;28;20036;-57
2022/06/29 00:44:59;;;;;;;5.15;1.50;;;14.20;99.90;;;;;;5090901;28;20048;-59
2022/06/29 00:47:27;;;;;;;9.82;1.58;;;14.30;99.90;;;;;;5097729;28;20052;-56
2022/06/29 00:49:55;;;;;;;7.50;1.38;;;14.20;99.90;;;;;;5089960;28;20048;-56
2022/06/29 00:52:25;;;;;;;7.38;1.40;;;14.20;99.90;;;;;;5088972;28;20052;-58
2022/06/29 00:54:55;;;;;;;2.78;1.08;;;14.10;99.90;;;;;;5095533;28;20529;-56
2022/06/29 00:57:24;;;;;;;;;;;14.20;99.90;;;;;;5110225;28;20044;-57
2022/06/29 00:59:59;;;;;;;6.10;0.98;;;14.10;99.90;;;;;;5094317;28;19920;-58
2022/06/29 01:02:32;;;;;;;4.30;0.93;;;14.10;99.90;;;;;;5087443;28;20193;-58
2022/06/29 01:05:00;;;;;;;5.68;2.15;;;14.00;99.90;;;;;;5093133;28;20050;-55
2022/06/29 01:07:30;;;;;;;6.10;1.10;;;14.00;99.90;;;;;;5088221;28;20048;-55
2022/06/29 01:10:00;;;;;;;5.13;1.50;;;14.00;99.90;;;;;;5108769;28;20054;-55
2022/06/29 01:12:27;;;;;;;3.17;1.13;;;14.00;99.90;;;;;;5108085;28;20490;-58
2022/06/29 01:14:55;;;;;;;3.53;1.00;;;14.00;99.90;;;;;;5101312;28;20050;-58
2022/06/29 01:17:23;;;;;;;5.03;1.23;;;14.00;99.90;;;;;;5090156;28;20513;-57
2022/06/29 01:19:51;;;;;;;8.15;1.30;;;14.00;99.90;;;;;;5106907;28;20040;-57
2022/06/29 01:22:23;;;;;;;6.22;1.10;;;13.90;99.90;;;;;;5109466;28;20047;-57
2022/06/29 01:24:51;;;;;;;5.47;1.52;;;13.90;99.90;;;;;;5108981;28;20036;-57
2022/06/29 01:27:20;;;;;;;4.70;1.40;;;13.90;99.90;;;;;;5090381;28;20044;-57
2022/06/29 01:29:48;;;;;;;6.32;1.50;;;13.90;99.90;;;;;;5105154;28;20067;-57
2022/06/29 01:32:16;;;;;;;7.00;1.75;;;13.80;99.90;;;;;;5092237;28;20047;-57
2022/06/29 01:34:44;;;;;;;7.03;1.65;;;13.80;99.90;;;;;;5095740;28;20507;-57
2022/06/29 01:37:11;;;;;;;5.28;1.75;;;13.80;99.90;;;;;;5093194;28;20052;-57
2022/06/29 01:39:40;;;;;;;5.25;1.50;;;13.80;99.90;;;;;;5107546;28;20051;-55
2022/06/29 01:42:09;;;;;;;5.72;1.75;;;13.80;99.90;;;;;;5093813;28;20055;-55
2022/06/29 01:44:37;;;;;;;4.40;1.10;;;13.70;99.90;;;;;;5099233;28;20047;-55
2022/06/29 01:47:05;;;;;;;4.80;1.48;;;13.70;99.90;;;;;;5109803;28;20058;-56
2022/06/29 01:49:33;;;;;;;9.40;1.52;;;13.70;99.90;;;;;;5111735;28;20139;-56
2022/06/29 01:52:00;;;;;;;4.00;1.65;;;13.70;99.90;;;;;;5090765;28;20055;-57
2022/06/29 01:54:28;;;;;;;4.30;1.75;;;13.70;99.90;;;;;;5097437;28;20044;-57
2022/06/29 01:56:56;;;;;;;4.45;1.52;;;13.70;99.90;;;;;;5110859;28;20047;-58
2022/06/29 01:59:23;;;;;;;4.50;1.75;;;13.70;99.90;;;;;;5109824;28;20501;-57
2022/06/29 02:01:51;;;;;;;4.20;2.10;;;13.60;99.90;;;;;;5110897;28;20036;-57
2022/06/29 02:04:19;;;;;;;5.20;1.88;;;13.60;99.90;;;;;;5109535;28;20040;-57
2022/06/29 02:06:47;;;;;;;2.75;1.30;;;13.60;99.90;;;;;;5110684;28;20557;-56
2022/06/29 02:09:15;;;;;;;4.25;1.77;;;13.60;99.90;;;;;;5115810;28;20047;-56
2022/06/29 02:11:42;;;;;;;9.90;1.88;;;13.60;99.90;;;;;;5114782;28;20403;-57
2022/06/29 02:14:10;;;;;;;6.13;1.65;;;13.60;99.90;;;;;;5112684;28;20376;-56
2022/06/29 02:16:37;;;;;;;6.88;1.75;;;13.60;99.90;;;;;;5112585;28;20401;-56
2022/06/29 02:19:05;;;;;;;13.20;2.55;;;13.60;99.90;;;;;;5115615;28;20039;-56
2022/06/29 02:21:33;;;;;;;10.23;3.05;;;13.60;99.90;;;;;;5114669;28;20039;-57
2022/06/29 02:24:01;;;;;;;8.23;1.98;;;13.50;99.90;;;;;;5113321;28;20051;-58
2022/06/29 02:26:28;;;;;;;7.75;1.63;;;13.50;99.90;;;;;;5102631;28;20040;-56
2022/06/29 02:28:57;;;;;;;6.03;2.15;;;13.50;99.90;;;;;;5094995;28;20071;-57
2022/06/29 02:36:58;;;;;;;6.65;2.00;;;13.50;99.90;;;;;;5098227;28;20058;-57
2022/06/29 02:39:26;;;;;;;4.85;1.88;;;13.50;99.90;;;;;;5094712;28;20044;-57
2022/06/29 02:41:53;;;;;;;4.82;2.33;;;13.40;99.90;;;;;;5104463;28;20062;-57
2022/06/29 02:44:21;;;;;;;6.63;2.35;;;13.40;99.90;;;;;;5114073;28;20519;-57
2022/06/29 02:46:48;;;;;;;5.57;2.15;;;13.40;99.90;;;;;;5114036;28;20482;-57
2022/06/29 02:49:16;;;;;;;7.85;1.90;;;13.40;99.90;;;;;;5115016;28;20539;-57
2022/06/29 02:51:44;;;;;;;2.42;2.08;;;13.40;99.90;;;;;;5112925;28;20044;-57
2022/06/29 02:54:11;;;;;;;8.38;2.45;;;13.40;99.90;;;;;;5113671;28;20044;-57
2022/06/29 02:56:39;;;;;;;7.15;2.50;;;13.50;99.90;;;;;;5100564;28;20047;-57
2022/06/29 02:59:07;;;;;;;3.65;2.08;;;13.50;99.90;;;;;;5094090;28;20044;-57
2022/06/29 03:01:35;;;;;;;11.57;2.20;;;13.40;99.90;;;;;;5093400;28;20047;-57
2022/06/29 03:04:02;;;;;;;3.58;1.55;;;13.50;99.90;;;;;;5108396;28;20051;-58
2022/06/29 03:06:30;;;;;;;8.43;1.70;;;13.50;99.90;;;;;;5113264;28;20482;-58
2022/06/29 03:08:58;;;;;;;10.68;1.92;;;13.50;99.90;;;;;;5114628;28;20058;-58
2022/06/29 03:11:25;;;;;;;7.30;2.33;;;13.50;99.90;;;;;;5112568;28;20039;-57
2022/06/29 03:13:53;;;;;;;5.72;1.70;;;13.50;99.90;;;;;;5113487;28;20043;-57
2022/06/29 03:16:22;;;;;;;2.58;1.80;;;13.50;99.90;;;;;;5100725;28;20047;-56
2022/06/29 03:18:50;;;;;;;7.55;1.90;;;13.50;99.90;;;;;;5093449;28;20052;-57
2022/06/29 03:21:18;;;;;;;6.22;1.48;;;13.50;99.90;;;;;;5098187;28;20553;-56
2022/06/29 03:23:45;;;;;;;6.00;1.77;;;13.50;99.90;;;;;;5114056;28;20040;-56
2022/06/29 03:26:13;;;;;;;5.95;1.90;;;13.50;99.90;;;;;;5103344;28;20047;-58
2022/06/29 03:28:41;;;;;;;7.28;1.90;;;13.50;99.90;;;;;;5092768;28;20503;-58
2022/06/29 03:31:08;;;;;;;5.60;1.92;;;13.60;99.90;;;;;;5095403;28;20052;-57
2022/06/29 03:33:36;;;;;;;3.47;1.30;;;13.50;99.90;;;;;;5113890;28;20046;-57
2022/06/29 03:36:04;;;;;;;10.25;1.50;;;13.60;99.90;;;;;;5113211;28;20062;-58
2022/06/29 03:38:31;;;;;;;5.32;2.15;;;13.50;99.90;;;;;;5113873;28;20039;-56
2022/06/29 03:40:59;;;;;;;7.97;1.98;;;13.50;99.90;;;;;;5110612;28;20435;-58
2022/06/29 03:43:26;;;;;;;7.32;2.13;;;13.50;99.90;;;;;;5113255;28;20048;-57
2022/06/29 03:45:54;;;;;;;4.68;2.28;;;13.50;99.90;;;;;;5106005;28;20036;-57
2022/06/29 03:48:21;;;;;;;7.90;2.28;;;13.50;99.90;;;;;;5093264;28;20055;-57
2022/06/29 03:50:49;;;;;;;5.72;2.70;;;13.50;99.90;;;;;;5091828;28;20051;-58
2022/06/29 03:53:17;;;;;;;5.60;1.85;;;13.50;99.90;;;;;;5092156;28;20080;-57
2022/06/29 03:55:44;;;;;;;4.75;1.70;;;13.40;99.90;;;;;;5092460;28;20051;-58
2022/06/29 03:58:12;;;;;;;4.68;2.00;;;13.50;99.90;;;;;;5074935;28;20055;-57
2022/06/29 04:00:40;;;;;;;4.72;1.80;;;13.50;99.90;;;;;;5074232;28;20044;-57
2022/06/29 04:03:07;;;;;;;6.18;1.83;;;13.50;99.90;;;;;;5111920;28;20036;-58
2022/06/29 04:05:35;;;;;;;3.60;1.90;;;13.50;99.90;;;;;;5108301;28;20507;-56
2022/06/29 04:08:03;;;;;;;4.18;1.80;;;13.50;99.90;;;;;;5092875;28;20040;-57
2022/06/29 04:10:30;;;;;;;5.90;1.80;;;13.50;99.90;;;;;;5092009;28;20055;-56
2022/06/29 04:12:58;;;;;;;8.48;1.70;;;13.50;99.90;;;;;;5109251;28;20067;-55
2022/06/29 04:15:25;;;;;;;6.80;2.25;;;13.50;99.90;;;;;;5109836;28;20482;-56
2022/06/29 04:17:53;;;;;;;5.45;1.75;;;13.50;99.90;;;;;;5091022;28;20055;-57
2022/06/29 04:23:07;;;;;;;5.40;1.77;;;13.60;99.90;;;;;;5111350;28;20044;-56
2022/06/29 04:25:35;;;;;;;7.68;2.45;;;13.60;99.90;;;;;;5107949;28;20063;-57
2022/06/29 04:28:02;;;;;;;4.90;1.50;;;13.60;99.90;;;;;;5091236;28;20048;-57
2022/06/29 04:30:30;;;;;;;2.80;1.33;;;13.60;99.90;;;;;;5098642;28;20383;-57
2022/06/29 04:32:58;;;;;;;5.50;1.17;;;13.60;99.90;;;;;;5092498;28;20048;-57
2022/06/29 04:35:25;;;;;;;2.40;1.33;;;13.60;99.90;;;;;;5092130;28;20063;-57
2022/06/29 04:37:53;;;;;;;7.30;1.50;;;13.60;99.90;;;;;;5091706;28;20051;-58
2022/06/29 04:40:20;;;;;;;1.83;1.15;;;13.60;99.90;;;;;;5098691;28;20062;-58
2022/06/29 04:42:48;;;;;;;3.50;1.13;;;13.60;99.90;;;;;;5091640;28;20123;-58
2022/06/29 04:48:03;;;;;;;7.78;2.58;;;13.60;99.90;;;;;;5090335;28;20044;-58
2022/06/29 04:50:31;;;;;;;5.22;1.30;;;13.60;99.90;;;;;;5090609;28;20048;-57
2022/06/29 04:52:58;;;;;;;2.85;1.55;;;13.60;99.90;;;;;;5087020;28;20055;-58
2022/06/29 04:55:29;;;;;;;4.07;1.60;;;13.70;99.90;;;;;;5088420;28;20056;-57
2022/06/29 04:57:56;;;;;;;4.20;1.42;;;13.70;99.90;;;;;;5095580;28;20040;-58
2022/06/29 05:00:24;;;;;;;4.18;1.48;;;13.70;99.90;;;;;;5104857;28;20047;-57
2022/06/29 05:02:52;;;;;;;3.75;1.70;;;13.70;99.90;;;;;;5088860;28;20040;-58
2022/06/29 05:05:20;;;;;;;4.60;1.40;;;13.70;99.90;;;;;;5087207;28;20040;-58
2022/06/29 05:07:47;;;;;;;4.35;1.75;;;13.70;99.90;;;;;;5084903;28;20040;-58
2022/06/29 05:10:15;;;;;;;2.47;1.58;;;13.70;99.90;;;;;;5090370;28;20046;-58
2022/06/29 05:12:43;;;;;;;2.78;1.02;;;13.80;99.90;;;;;;5088418;28;20380;-57
2022/06/29 05:15:11;;;;;;;7.13;1.67;;;13.80;99.90;;;;;;5089719;28;20048;-57
2022/06/29 05:17:39;;;;;;;7.78;1.75;;;13.80;99.90;;;;;;5086381;28;20048;-58
2022/06/29 05:20:08;;;;;;;3.35;1.27;;;13.80;99.90;;;;;;5089566;28;20048;-58
2022/06/29 05:22:37;;;;;;;5.25;1.52;;;13.80;99.90;;;;;;5086076;28;20051;-58
2022/06/29 05:25:07;;;;;;;3.65;1.40;;;13.80;99.90;;;;;;5086863;28;20373;-58
2022/06/29 05:27:34;;;;;;;4.93;1.50;;;13.80;99.90;;;;;;5092243;28;20054;-58
2022/06/29 05:30:03;;;;;;;4.30;2.08;;;13.70;99.90;;;;;;5109384;28;20054;-58
2022/06/29 05:32:30;;;;;;;6.40;1.83;;;13.70;99.90;;;;;;5102158;28;20046;-58
2022/06/29 05:34:58;;;;;;;9.23;1.88;;;13.80;99.90;;;;;;5086329;28;20056;-58
2022/06/29 05:37:26;;;;;;;7.47;1.60;;;13.70;99.90;;;;;;5087869;28;20066;-58
2022/06/29 05:39:53;;;;;;;9.60;1.70;;;13.70;99.90;;;;;;5104450;28;20040;-58
2022/06/29 05:42:21;;;;;;;6.30;1.63;;;13.80;99.90;;;;;;5106807;28;20077;-58
2022/06/29 05:44:49;;;;;;;2.08;1.40;;;13.80;99.90;;;;;;5109890;28;20060;-58
2022/06/29 05:47:16;;;;;;;6.35;1.30;;;13.80;99.90;;;;;;5105186;28;20047;-58
2022/06/29 05:49:44;;;;;;;3.95;1.45;;;13.70;99.90;;;;;;5104351;28;20047;-59
2022/06/29 05:52:12;;;;;;;9.40;1.77;;;13.70;99.90;;;;;;5104906;28;20119;-59
2022/06/29 05:54:39;;;;;;;6.55;1.42;;;13.70;99.90;;;;;;5105014;28;20054;-59
2022/06/29 05:57:07;;;;;;;4.18;1.67;;;13.60;99.90;;;;;;5104791;28;20511;-59
2022/06/29 05:59:35;;;;;;;8.18;1.90;;;13.60;99.90;;;;;;5101769;28;20490;-59
2022/06/29 06:02:03;;;;;;;7.05;1.92;;;13.60;99.90;;;;;;5108874;28;20062;-58
2022/06/29 06:04:31;;;;;;;3.35;1.48;;;13.60;99.90;;;;;;5094433;28;20040;-59
2022/06/29 06:06:59;;;;;;;8.15;1.95;;;13.60;99.90;;;;;;5101270;28;20388;-58
2022/06/29 06:09:27;;;;;;;3.75;1.77;;;13.60;99.90;;;;;;5108914;28;20082;-58
2022/06/29 06:11:55;;;;;;;5.45;1.77;;;13.60;99.90;;;;;;5104343;28;20047;-58
2022/06/29 06:14:23;;;;;;;7.72;1.83;;;13.60;99.90;;;;;;5109177;28;20060;-59
2022/06/29 06:16:50;;;;;;;8.68;2.17;;;13.60;99.90;;;;;;5105133;28;20589;-59
2022/06/29 06:19:18;;;;;;;7.22;1.88;;;13.70;99.90;;;;;;5088364;28;20051;-59
2022/06/29 06:21:46;;;;;;;13.10;2.42;;;13.70;99.90;;;;;;5085044;28;20122;-59
2022/06/29 06:24:13;;;;;;;5.75;1.50;;;13.80;99.90;;;;;;5086842;28;20040;-57
2022/06/29 06:26:41;;;;;;;4.50;1.67;;;13.80;99.90;;;;;;5100912;28;20046;-59
2022/06/29 06:29:09;;;;;;;4.88;1.50;;;13.90;99.90;;;;;;5099034;28;20134;-58
2022/06/29 06:31:37;;;;;;;4.03;1.20;;;13.80;99.90;;;;;;5077039;28;20897;-57
2022/06/29 06:34:05;;;;;;;3.95;2.20;;;13.80;99.90;;;;;;5114479;28;20036;-59
2022/06/29 06:36:32;;;;;;;8.70;1.90;;;13.80;99.90;;;;;;5101448;28;20043;-57
2022/06/29 06:39:00;;;;;;;13.10;2.15;;;13.80;99.90;;;;;;5093020;28;20058;-58
2022/06/29 06:41:27;;;;;;;8.43;1.80;;;13.80;99.90;;;;;;5090043;28;20036;-59
2022/06/29 06:43:57;;;;;;;6.90;1.95;;;13.90;99.90;;;;;;5104041;28;20043;-57
2022/06/29 06:46:27;;;;;;;8.10;1.60;;;14.00;99.90;;;;;;5109707;28;20047;-57
2022/06/29 06:48:55;;;;;;;4.03;1.77;;;14.00;99.90;;;;;;5092843;28;20384;-57
2022/06/29 06:51:23;;;;;;;6.25;1.90;;;14.10;99.90;;;;;;5089345;28;20048;-56
2022/06/29 06:53:52;;;;;;;4.88;1.63;;;14.20;99.90;;;;;;5106526;28;20528;-58
2022/06/29 06:56:20;;;;;;;6.47;1.83;;;14.30;99.90;;;;;;5111555;28;20050;-59
2022/06/29 06:58:47;;;;;;;8.98;1.70;;;14.30;99.90;;;;;;5101066;28;20060;-59
2022/06/29 07:01:21;;;;;;;7.32;1.85;;;14.30;99.90;;;;;;5106573;28;20055;-59
2022/06/29 07:03:49;;;;;;;5.75;1.85;;;14.40;99.90;;;;;;5105983;28;20036;-59
2022/06/29 07:06:17;;;;;;;8.63;1.85;;;14.40;99.90;;;;;;5102470;28;20047;-58
2022/06/29 07:08:46;;;;;;;10.02;2.03;;;14.50;99.90;;;;;;5099687;28;20040;-59
2022/06/29 07:11:13;;;;;;;7.97;2.97;;;14.50;99.90;;;;;;5112694;28;20043;-60
2022/06/29 07:13:41;;;;;;;10.88;2.20;;;14.60;99.90;;;;;;5111576;28;20059;-59
2022/06/29 07:16:09;;;;;;;6.07;2.00;;;14.60;99.90;;;;;;5104340;28;20467;-59
2022/06/29 07:18:37;;;;;;;10.30;2.58;;;14.70;99.90;;;;;;5101516;28;20075;-58
2022/06/29 07:21:05;;;;;;;8.52;1.58;;;14.70;99.90;;;;;;5093076;28;20070;-59
2022/06/29 07:23:33;;;;;;;4.88;1.85;;;14.80;99.90;;;;;;5092234;28;20094;-59
2022/06/29 07:26:00;;;;;;;5.25;1.88;;;14.90;99.90;;;;;;5092222;28;20044;-58
2022/06/29 07:28:28;;;;;;;5.40;1.33;;;14.90;99.90;;;;;;5092375;28;20040;-59
2022/06/29 07:30:56;;;;;;;9.80;1.80;;;14.90;99.90;;;;;;5105156;28;20055;-60
2022/06/29 07:33:23;;;;;;;7.43;1.38;;;15.00;99.90;;;;;;5104301;28;20048;-60
2022/06/29 07:35:51;;;;;;;7.38;1.48;;;15.00;99.90;;;;;;5103108;28;20406;-59
2022/06/29 07:38:19;;;;;;;4.45;1.08;;;15.20;99.90;;;;;;5093981;28;20044;-58
2022/06/29 07:40:46;;;;;;;6.85;1.50;;;15.20;99.90;;;;;;5091855;28;20382;-60
2022/06/29 07:43:14;;;;;;;7.30;1.73;;;15.30;99.90;;;;;;5095477;28;20040;-59
2022/06/29 07:45:43;;;;;;;6.90;1.40;;;15.30;99.90;;;;;;5112365;28;20048;-60
2022/06/29 07:48:10;;;;;;;6.82;1.52;;;15.40;99.90;;;;;;5104043;28;20565;-58
2022/06/29 07:50:38;;;;;;;8.50;0.98;;;15.40;99.90;;;;;;5092183;28;20032;-59
2022/06/29 07:53:06;;;;;;;6.05;1.40;;;15.50;99.90;;;;;;5092529;28;20040;-59
2022/06/29 07:55:33;;;;;;;5.47;1.30;;;15.60;99.90;;;;;;5112176;28;20631;-59
2022/06/29 07:58:01;;;;;;;7.38;1.50;;;15.70;99.90;;;;;;5104976;28;20608;-60
2022/06/29 08:00:29;;;;;;;5.85;1.45;;;15.80;99.90;;;;;;5091634;28;20066;-59
2022/06/29 08:02:56;;;;;;;6.20;1.40;;;15.90;99.90;;;;;;5105278;28;20047;-59
2022/06/29 08:05:24;;;;;;;7.35;1.50;;;16.00;99.90;;;;;;5101451;28;20040;-59
2022/06/29 08:07:52;;;;;;;6.80;1.50;;;16.00;99.90;;;;;;5102557;28;20043;-59
2022/06/29 08:10:19;;;;;;;5.43;1.30;;;16.10;99.90;;;;;;5110471;28;20055;-60
2022/06/29 08:12:47;;;;;;;8.20;1.20;;;16.10;99.90;;;;;;5110796;28;20054;-59
2022/06/29 08:15:17;;;;;;;8.98;1.40;;;16.20;99.90;;;;;;5111731;28;20066;-60
2022/06/29 08:17:48;;;;;;;11.18;1.88;;;16.20;99.90;;;;;;5105640;28;20039;-59
2022/06/29 08:20:16;;;;;;;7.43;1.50;;;16.20;99.90;;;;;;5091312;28;20067;-59
2022/06/29 08:22:43;;;;;;;11.15;1.70;;;16.30;99.90;;;;;;5091202;28;20059;-59
2022/06/29 08:25:11;;;;;;;4.43;1.45;;;16.30;99.90;;;;;;5091133;28;20047;-58
2022/06/29 08:27:40;;;;;;;9.32;1.30;;;16.40;99.90;;;;;;5094445;28;20040;-59
2022/06/29 08:30:13;;;;;;;9.55;2.22;;;16.40;99.90;;;;;;5091164;28;20538;-62
2022/06/29 08:32:42;;;;;;;4.35;1.17;;;16.50;99.90;;;;;;5086580;28;20056;-58
2022/06/29 08:35:16;;;;;;;11.88;2.08;;;16.50;99.90;;;;;;5092071;28;20044;-61
2022/06/29 08:37:45;;;;;;;6.25;1.33;;;16.50;99.90;;;;;;5105415;28;20400;-57
2022/06/29 08:40:17;;;;;;;7.70;1.03;;;16.50;99.90;;;;;;5089732;28;20044;-57
2022/06/29 08:42:46;;;;;;;2.78;1.25;;;16.50;99.90;;;;;;5091144;28;20044;-58
2022/06/29 08:45:15;;;;;;;4.75;1.35;;;16.50;99.90;;;;;;5091286;28;20040;-57
2022/06/29 08:47:42;;;;;;;4.03;1.33;;;16.40;99.90;;;;;;5090519;28;20044;-56
2022/06/29 08:50:11;;;;;;;4.80;0.90;;;16.40;99.90;;;;;;5090949;28;20047;-56
2022/06/29 08:52:40;;;;;;;5.75;1.30;;;16.30;99.90;;;;;;5090350;28;20052;-56
2022/06/29 08:55:09;;;;;;;6.43;1.33;;;16.30;99.90;;;;;;5093108;28;20044;-56
2022/06/29 08:57:39;;;;;;;8.55;1.10;;;16.40;99.90;;;;;;5089575;28;20032;-57
2022/06/29 09:00:08;;;;;;;4.97;1.33;;;16.40;99.90;;;;;;5104286;28;20039;-57
2022/06/29 09:02:36;;;;;;;6.57;1.23;;;16.50;99.90;;;;;;5107180;28;20536;-55
2022/06/29 09:05:05;;;;;;;6.75;0.98;;;16.60;99.90;;;;;;5102485;28;20051;-55
2022/06/29 09:07:32;;;;;;;5.20;1.30;;;16.60;99.90;;;;;;5104572;28;20052;-56
2022/06/29 09:10:01;;;;;;;5.68;1.27;;;16.70;99.90;;;;;;5102813;28;20059;-55
2022/06/29 09:12:31;;;;;;;5.95;1.13;;;16.70;99.90;;;;;;5109555;28;20051;-56
2022/06/29 09:15:00;;;;;;;4.85;1.17;;;16.80;99.90;;;;;;5107640;28;20051;-55
2022/06/29 09:17:31;;;;;;;6.07;1.20;;;16.80;99.90;;;;;;5107920;28;20122;-56
2022/06/29 09:19:59;;;;;;;9.43;1.95;;;16.90;99.90;;;;;;5094893;28;20641;-55
2022/06/29 09:22:55;;;;;;;3.60;1.00;;;17.10;99.90;;;;;;5087151;28;20040;-56
2022/06/29 09:25:25;;;;;;;4.47;1.00;;;17.30;99.90;;;;;;5087011;28;20694;-56
2022/06/29 09:27:55;;;;;;;5.55;1.10;;;17.40;99.90;;;;;;5088790;28;20047;-58
2022/06/29 09:30:30;;;;;;;1.98;1.02;;;17.50;99.90;;;;;;5093139;28;20466;-58
2022/06/29 09:33:07;;;;;;;4.97;1.23;;;17.60;99.90;;;;;;5104818;28;20336;-58
2022/06/29 09:35:38;;;;;;;5.60;0.88;;;17.70;99.90;;;;;;5108169;28;20074;-58
2022/06/29 09:38:26;;;;;;;3.92;1.00;;;17.90;99.90;;;;;;5102683;28;20059;-57
2022/06/29 09:40:59;;;;;;;6.95;0.95;;;18.00;99.90;;;;;;5092680;28;20051;-58
2022/06/29 09:43:29;;;;;;;8.18;1.40;;;18.00;99.90;;;;;;5096955;28;20048;-58
2022/06/29 09:45:57;;;;;;;6.03;1.10;;;18.00;99.90;;;;;;5099317;28;20039;-58
2022/06/29 09:48:26;;;;;;;5.22;1.10;;;18.00;99.90;;;;;;5099858;28;20419;-57
2022/06/29 09:50:55;;;;;;;3.30;0.90;;;18.10;99.90;;;;;;5101244;28;20051;-58
2022/06/29 09:53:37;;;;;;;3.65;0.80;;;18.10;99.90;;;;;;5108194;28;20050;-57
2022/06/29 09:56:07;;;;;;;4.82;1.23;;;18.30;99.90;;;;;;5106536;28;20043;-57
2022/06/29 09:58:47;;;;;;;6.25;1.15;;;18.50;99.90;;;;;;5082781;28;20051;-58
2022/06/29 10:04:05;;;;;;;5.38;1.02;;;18.80;99.90;;;;;;5100038;28;20039;-58
2022/06/29 10:06:33;;;;;;;3.15;0.90;;;19.00;99.90;;;;;;5092750;28;20048;-57
2022/06/29 10:09:03;;;;;;;6.32;1.30;;;19.10;99.90;;;;;;5088014;28;20044;-58
2022/06/29 10:14:41;;;;;;;4.20;0.95;;;19.30;99.90;;;;;;5104020;28;20059;-61
2022/06/29 10:17:14;;;;;;;6.50;0.95;;;19.40;99.90;;;;;;5092389;28;20062;-58
2022/06/29 10:19:55;;;;;;;6.10;1.08;;;19.50;99.90;;;;;;5101426;28;20044;-59
2022/06/29 10:22:23;;;;;;;4.10;0.98;;;19.50;99.90;;;;;;5107288;28;20046;-57
2022/06/29 10:25:11;;;;;;;3.50;1.30;;;19.50;99.90;;;;;;5095065;28;20039;-59
2022/06/29 10:28:19;;;;;;;3.75;1.00;;;19.50;99.90;;;;;;5092449;28;20036;-57
2022/06/29 10:30:47;;;;;;;3.35;0.90;;;19.50;99.90;;;;;;5095460;28;20044;-57
2022/06/29 10:33:35;;;;;;;1.65;0.68;;;19.40;99.90;;;;;;5102764;28;20047;-58
2022/06/29 10:36:08;;;;;;;7.35;0.88;;;19.30;99.90;;;;;;5096223;28;20055;-58
2022/06/29 10:39:03;;;;;;;4.55;0.80;;;19.30;99.90;;;;;;5108836;27;20498;-58
2022/06/29 10:45:01;;;;;;;4.95;0.60;;;19.40;99.90;;;;;;5101976;28;20036;-56
2022/06/29 10:47:30;;;;;;;5.03;1.33;;;19.60;99.90;;;;;;5094112;28;20048;-58
2022/06/29 10:52:46;;;;;;;5.63;0.68;;;19.90;99.90;;;;;;5107656;28;20055;-59
2022/06/29 10:55:15;;;;;;;3.67;0.95;;;20.00;99.90;;;;;;5112211;28;20048;-58
2022/06/29 10:57:44;;;;;;;2.50;0.70;;;20.10;99.10;;;;;;5108949;28;20048;-58
2022/06/29 11:00:22;;;;;;;5.43;1.00;;;20.10;98.90;;;;;;5104251;28;20082;-58
2022/06/29 11:02:50;;;;;;;3.90;1.15;;;20.10;98.50;;;;;;5107923;28;20036;-61
2022/06/29 11:05:18;;;;;;;3.17;0.63;;;20.10;98.40;;;;;;5105996;28;20043;-60
2022/06/29 11:13:27;;;;;;;4.97;0.90;;;20.40;99.10;;;;;;5105371;28;20054;-60
2022/06/29 11:15:57;;;;;;;3.00;0.75;;;20.50;98.70;;;;;;5109507;28;20050;-58
2022/06/29 11:18:32;;;;;;;4.90;1.00;;;20.50;98.20;;;;;;5096176;28;20514;-59
2022/06/29 11:21:03;;;;;;;2.65;0.60;;;20.60;98.00;;;;;;5092218;28;20052;-58
2022/06/29 11:23:33;;;;;;;4.28;0.73;;;20.50;97.60;;;;;;5104839;28;20398;-58
2022/06/29 11:26:03;;;;;;;1.45;0.57;;;20.50;97.90;;;;;;5094835;28;20047;-59
2022/06/29 11:28:40;;;;;;;3.13;0.90;;;20.60;97.90;;;;;;5095978;28;20387;-58
2022/06/29 11:31:10;;;;;;;3.22;0.77;;;20.60;97.60;;;;;;5112209;28;20040;-57
2022/06/29 11:33:48;;;;;;;3.10;0.70;;;20.60;97.10;;;;;;5112432;28;20050;-56
2022/06/29 11:36:21;;;;;;;4.28;0.80;;;20.50;96.60;;;;;;5109229;28;20062;-57
2022/06/29 11:38:57;;;;;;;6.40;0.98;;;20.40;96.70;;;;;;5105677;28;20036;-57
2022/06/29 11:44:28;;;;;;;4.53;0.63;;;20.20;97.40;;;;;;5111519;28;20055;-57
2022/06/29 11:46:56;;;;;;;3.38;1.02;;;20.10;96.80;;;;;;5097858;28;20044;-56
2022/06/29 11:49:39;;;;;;;6.18;0.98;;;20.20;97.20;;;;;;5097516;28;20059;-56
2022/06/29 11:52:08;;;;;;;3.10;0.70;;;20.30;97.30;;;;;;5110441;28;20035;-56
2022/06/29 11:54:43;;;;;;;2.47;0.60;;;20.40;96.90;;;;;;5109800;28;20417;-58
2022/06/29 11:57:14;;;;;;;3.80;0.80;;;20.60;97.00;;;;;;5110090;28;20587;-58
2022/06/29 11:59:44;;;;;;;2.20;0.70;;;20.80;96.10;;;;;;5107044;28;20044;-59
2022/06/29 12:02:14;;;;;;;2.85;0.55;;;20.90;96.00;;;;;;5100284;28;20396;-59
2022/06/29 12:04:44;;;;;;;1.55;0.50;;;21.10;96.30;;;;;;5104907;28;20055;-59
2022/06/29 12:07:14;;;;;;;4.55;0.57;;;21.40;95.00;;;;;;5105539;28;20055;-59
2022/06/29 12:09:43;;;;;;;1.88;0.30;;;21.50;94.00;;;;;;5102192;28;20047;-59
2022/06/29 12:12:12;;;;;;;5.90;0.80;;;21.80;94.90;;;;;;5111325;28;20050;-59
2022/06/29 12:14:41;;;;;;;6.68;0.70;;;22.20;94.60;;;;;;5111269;28;20059;-58
2022/06/29 12:17:10;;;;;;;1.52;0.55;;;22.50;93.70;;;;;;5111529;28;20426;-59
2022/06/29 12:19:39;;;;;;;4.07;0.50;;;22.60;92.60;;;;;;5097155;28;20052;-59
2022/06/29 12:22:07;;;;;;;6.60;0.63;;;22.80;93.30;;;;;;5106943;28;20055;-59
2022/06/29 12:24:35;;;;;;;4.45;0.57;;;23.20;92.80;;;;;;5101455;28;20066;-59
2022/06/29 12:27:04;;;;;;;1.98;0.40;;;23.60;91.10;;;;;;5096402;28;20050;-58
2022/06/29 12:29:32;;;;;;;3.33;0.70;;;23.80;90.90;;;;;;5091775;28;20071;-59
2022/06/29 12:31:59;;;;;;;4.78;0.60;;;24.00;88.80;;;;;;5090533;28;20515;-58
2022/06/29 12:34:27;;;;;;;3.58;0.52;;;24.10;90.40;;;;;;5097285;28;20044;-61
2022/06/29 12:36:58;;;;;;;2.67;0.60;;;24.10;86.20;;;;;;5108965;28;20506;-60
2022/06/29 12:39:26;;;;;;;2.08;0.40;;;23.80;84.70;;;;;;5106228;28;20039;-59
2022/06/29 12:41:54;;;;;;;3.95;0.63;;;23.40;86.00;;;;;;5104090;28;20039;-59
2022/06/29 12:44:22;;;;;;;3.33;0.50;;;23.20;87.10;;;;;;5094574;28;20059;-58
2022/06/29 12:46:50;;;;;;;2.80;0.50;;;23.20;86.70;;;;;;5100494;28;20081;-59
2022/06/29 12:49:17;;;;;;;3.25;0.57;;;23.10;86.90;;;;;;5093592;28;20051;-59
2022/06/29 12:51:45;;;;;;;0.77;0.50;;;23.50;86.30;;;;;;5099630;28;20066;-59
2022/06/29 12:54:13;;;;;;;2.30;0.57;;;23.90;85.20;;;;;;5100818;28;20495;-58
2022/06/29 12:56:41;;;;;;;2.30;0.70;;;24.20;83.90;;;;;;5103923;28;20046;-58
2022/06/29 12:59:09;;;;;;;4.38;0.90;;;24.30;83.30;;;;;;5097160;28;20040;-59
2022/06/29 13:01:37;;;;;;;3.85;0.57;;;24.40;82.30;;;;;;5101932;28;20521;-59
2022/06/29 13:04:04;;;;;;;6.32;0.88;;;24.20;82.30;;;;;;5093432;28;20407;-57
2022/06/29 13:06:32;;;;;;;5.25;0.60;;;23.90;83.10;;;;;;5089421;28;20048;-59
2022/06/29 13:09:00;;;;;;;5.38;1.00;;;23.60;85.40;;;;;;5094773;28;20506;-59
2022/06/29 13:11:27;;;;;;;2.22;0.50;;;23.50;85.80;;;;;;5088600;28;20399;-57
2022/06/29 13:13:55;;;;;;;3.45;0.63;;;23.20;83.70;;;;;;5088662;28;20547;-59
2022/06/29 13:16:27;;;;;;;6.05;0.50;;;22.90;84.40;;;;;;5088640;28;20040;-58
2022/06/29 13:18:55;;;;;;;2.92;0.60;;;22.50;85.40;;;;;;5099738;28;20032;-58
2022/06/29 13:21:23;;;;;;;3.40;0.60;;;22.30;88.20;;;;;;5109462;28;20052;-58
2022/06/29 13:23:51;;;;;;;2.10;0.43;;;22.50;88.00;;;;;;5099989;28;20044;-59
2022/06/29 13:26:18;;;;;;;1.98;0.40;;;22.80;86.20;;;;;;5088735;28;20048;-59